Disclaimer

Please do not use the information listed here in-flight or in-navigation, as they are not provided to us by the airports but are provided by volunteers, so they might be outdated.

Search


Regions


Airport information page

Radio informations:
Tower (TWR) - 118.05 MHz

Airport informations:
Latitude: 70° 04' 07.73" N
Longitude: 024° 58' 24.56" E
Elevation: 25 feet - 8 meters
Operating hours: Remarks
Operating agency: Military-civil joint use airport
Timezone: UTC+1(+2DT) - Last Sunday in March to last Sunday in October
Fuel: JP-4, Wide cut turbine fuel MIL Spec T-5624

Jet A1, without icing nhibitor.

Runway information:
17/35 - 9147 x 148 feet< - >2788 x 45 meters

Recent METARs:
ENNA 181920Z 16008KT CAVOK M01/M04 Q1036 RMK WIND 1800FT 28017KT
ENNA 181950Z 16007KT CAVOK M01/M05 Q1036 RMK WIND 1800FT 27013KT
ENNA 182020Z 16009KT CAVOK M01/M05 Q1035 RMK WIND 1800FT 27011KT

Airport on the map: